Time;durP1;ratioP1;P1;durP2;ratioP2;P2;SDS_P1;SDS_P2;PMS_P1;PMS_P2;Temp;Humidity;BMP_temperature;BMP_pressure;BME280_temperature;BME280_humidity;BME280_pressure;Samples;Min_cycle;Max_cycle;Signal;HPM_P1;HPM_P2
2021/03/04 00:02:13;;;;;;;28.73;18.37;;;6.80;99.90;;;;;;4980887;28;20171;-79
2021/03/04 00:04:39;;;;;;;27.97;19.03;;;6.80;99.90;;;;;;4972623;28;20268;-78
2021/03/04 00:07:05;;;;;;;33.70;20.47;;;6.70;99.90;;;;;;4967294;28;20175;-80
2021/03/04 00:09:33;;;;;;;36.13;19.87;;;6.70;99.90;;;;;;4966966;28;20172;-79
2021/03/04 00:11:58;;;;;;;27.27;19.57;;;6.70;99.90;;;;;;4964248;28;20450;-79
2021/03/04 00:14:24;;;;;;;30.60;18.07;;;6.60;99.90;;;;;;4966521;28;20470;-80
2021/03/04 00:16:50;;;;;;;28.37;17.00;;;6.70;99.90;;;;;;4965617;29;20164;-79
2021/03/04 00:19:16;;;;;;;34.23;18.03;;;6.50;99.90;;;;;;4967904;28;20251;-80
2021/03/04 00:21:42;;;;;;;28.10;19.07;;;6.40;99.90;;;;;;4965613;29;20513;-80
2021/03/04 00:24:08;;;;;;;32.77;18.63;;;6.30;99.90;;;;;;4968067;28;20163;-79
2021/03/04 00:26:34;;;;;;;31.73;19.80;;;6.30;99.90;;;;;;4968812;28;20178;-78
2021/03/04 00:29:01;;;;;;;35.60;20.17;;;6.50;99.90;;;;;;4968370;28;20900;-79
2021/03/04 00:31:27;;;;;;;31.80;19.50;;;6.40;99.90;;;;;;4966509;28;20795;-78
2021/03/04 00:33:53;;;;;;;35.20;19.80;;;6.50;99.90;;;;;;4964102;29;20859;-79
2021/03/04 00:36:19;;;;;;;28.33;18.00;;;6.40;99.90;;;;;;4965898;28;20438;-79
2021/03/04 00:38:45;;;;;;;30.07;19.10;;;6.50;99.90;;;;;;4966162;28;20171;-80
2021/03/04 00:41:11;;;;;;;33.93;19.27;;;6.50;99.90;;;;;;4965563;28;20171;-79
2021/03/04 00:43:37;;;;;;;32.83;19.40;;;6.50;99.90;;;;;;4966209;28;20172;-79
2021/03/04 00:46:03;;;;;;;31.87;18.77;;;6.50;99.90;;;;;;4966920;28;20819;-79
2021/03/04 00:48:29;;;;;;;32.70;19.87;;;6.50;99.90;;;;;;4966648;28;20182;-79
2021/03/04 00:50:55;;;;;;;40.33;17.80;;;6.50;99.90;;;;;;4966711;28;20482;-79
2021/03/04 00:53:21;;;;;;;30.00;20.00;;;6.60;99.90;;;;;;4966544;28;20170;-79
2021/03/04 00:55:49;;;;;;;26.03;16.90;;;6.60;99.90;;;;;;4966273;28;20482;-79
2021/03/04 00:58:14;;;;;;;35.97;21.50;;;6.70;99.90;;;;;;4966615;28;20395;-79
2021/03/04 01:00:40;;;;;;;30.97;19.87;;;6.70;99.90;;;;;;4966955;28;20419;-79
2021/03/04 01:03:06;;;;;;;38.97;18.70;;;6.70;99.90;;;;;;4967331;28;20174;-79
2021/03/04 01:05:32;;;;;;;25.53;17.77;;;6.80;99.90;;;;;;4966763;28;20407;-79
2021/03/04 01:07:58;;;;;;;29.77;18.37;;;6.90;99.90;;;;;;4966264;28;20174;-79
2021/03/04 01:10:35;;;;;;;40.50;19.97;;;6.70;99.90;;;;;;4966482;29;20453;-79
2021/03/04 01:13:01;;;;;;;28.00;18.83;;;6.80;99.90;;;;;;4967105;28;20171;-79
2021/03/04 01:15:28;;;;;;;28.37;18.67;;;6.90;99.90;;;;;;4967917;28;20403;-79
2021/03/04 01:17:53;;;;;;;39.67;19.77;;;6.80;99.90;;;;;;4967651;28;20487;-79
2021/03/04 01:20:20;;;;;;;41.00;19.03;;;6.80;99.90;;;;;;4968119;28;20399;-79
2021/03/04 01:22:46;;;;;;;32.23;18.40;;;6.70;99.90;;;;;;4971784;28;20248;-79
2021/03/04 01:25:13;;;;;;;27.87;18.40;;;6.60;99.90;;;;;;4979786;28;20413;-79
2021/03/04 01:27:39;;;;;;;29.10;18.20;;;6.50;99.90;;;;;;4979566;28;20426;-79
2021/03/04 01:30:07;;;;;;;29.10;16.70;;;6.50;99.90;;;;;;4979413;28;20470;-79
2021/03/04 01:32:33;;;;;;;34.93;19.13;;;6.40;99.90;;;;;;4967891;28;20598;-78
2021/03/04 01:34:59;;;;;;;37.83;20.40;;;6.50;99.90;;;;;;4965281;29;20401;-79
2021/03/04 01:37:25;;;;;;;30.20;18.83;;;6.60;99.90;;;;;;4966627;28;20525;-78
2021/03/04 01:39:51;;;;;;;26.27;17.63;;;6.70;99.90;;;;;;4965749;28;20399;-79
2021/03/04 01:42:17;;;;;;;36.17;20.07;;;6.70;99.90;;;;;;4965903;28;20167;-79
2021/03/04 01:44:43;;;;;;;27.30;19.10;;;6.80;99.90;;;;;;4966186;28;20406;-79
2021/03/04 01:47:09;;;;;;;30.43;18.70;;;6.80;99.90;;;;;;4963601;29;20735;-79
2021/03/04 01:49:35;;;;;;;26.83;19.27;;;6.80;99.90;;;;;;4967654;28;20502;-79
2021/03/04 01:52:01;;;;;;;53.90;19.70;;;6.70;99.90;;;;;;4967006;28;20258;-79
2021/03/04 01:54:27;;;;;;;29.53;19.60;;;6.70;99.90;;;;;;4965913;28;20399;-79
2021/03/04 01:56:53;;;;;;;37.47;21.47;;;6.70;99.90;;;;;;4965945;28;20735;-79
2021/03/04 01:59:21;;;;;;;42.20;20.20;;;6.80;99.90;;;;;;4965232;28;20410;-79
2021/03/04 02:01:48;;;;;;;28.00;19.27;;;7.10;99.90;;;;;;4965693;28;20203;-79
2021/03/04 02:04:14;;;;;;;36.50;21.70;;;7.10;99.90;;;;;;4966923;28;20427;-79
2021/03/04 02:07:14;;;;;;;31.33;18.70;;;7.10;99.90;;;;;;4966488;28;20403;-79
2021/03/04 02:09:46;;;;;;;34.60;20.43;;;7.00;99.90;;;;;;4965425;28;20203;-79
2021/03/04 02:12:23;;;;;;;32.07;18.00;;;7.00;99.90;;;;;;4975594;28;20410;-79
2021/03/04 02:14:53;;;;;;;25.60;17.17;;;7.00;99.90;;;;;;4978753;28;20398;-77
2021/03/04 02:17:21;;;;;;;26.63;18.00;;;6.90;99.90;;;;;;4974243;28;20426;-79
2021/03/04 02:20:00;;;;;;;23.03;16.90;;;7.00;99.90;;;;;;4965534;28;20410;-79
2021/03/04 02:22:50;;;;;;;24.80;18.40;;;6.80;99.90;;;;;;4979237;28;20564;-78
2021/03/04 02:25:53;;;;;;;40.47;18.90;;;6.80;99.90;;;;;;4979265;28;20418;-79
2021/03/04 02:28:22;;;;;;;30.83;20.07;;;6.80;99.90;;;;;;4966363;29;20482;-79
2021/03/04 02:30:49;;;;;;;36.23;19.30;;;6.90;99.90;;;;;;4964155;28;20482;-79
2021/03/04 02:33:20;;;;;;;26.77;14.87;;;7.00;99.90;;;;;;4963491;28;20417;-79
2021/03/04 02:35:47;;;;;;;24.40;16.77;;;7.10;99.90;;;;;;4963126;28;20851;-78
2021/03/04 02:38:15;;;;;;;30.50;18.43;;;7.30;99.90;;;;;;4966142;28;20522;-79
2021/03/04 02:40:44;;;;;;;34.43;19.33;;;7.10;99.90;;;;;;4964917;29;20407;-79
2021/03/04 02:43:11;;;;;;;40.17;20.10;;;7.10;99.90;;;;;;4966535;28;20864;-79
2021/03/04 02:45:37;;;;;;;24.77;17.27;;;7.20;99.90;;;;;;4965289;28;20403;-79
2021/03/04 02:48:05;;;;;;;27.13;17.97;;;7.20;99.90;;;;;;4966034;28;20395;-79
2021/03/04 02:50:32;;;;;;;32.60;17.67;;;7.10;99.90;;;;;;4965283;28;20951;-79
2021/03/04 02:52:59;;;;;;;26.20;16.80;;;7.10;99.90;;;;;;4965839;28;20465;-79
2021/03/04 02:55:26;;;;;;;26.80;15.80;;;7.10;99.90;;;;;;4964390;29;20418;-79
2021/03/04 02:57:54;;;;;;;27.37;16.43;;;7.00;99.90;;;;;;4965246;28;20446;-79
2021/03/04 03:00:23;;;;;;;26.30;16.50;;;7.10;99.90;;;;;;4965904;28;20491;-79
2021/03/04 03:02:52;;;;;;;37.80;20.10;;;7.20;99.90;;;;;;4964885;28;20414;-79
2021/03/04 03:05:21;;;;;;;36.90;21.17;;;7.20;99.90;;;;;;4965913;28;20399;-79
2021/03/04 03:07:48;;;;;;;22.13;16.63;;;7.00;99.90;;;;;;4966370;28;20407;-79
2021/03/04 03:10:16;;;;;;;25.43;17.50;;;7.00;99.90;;;;;;4965585;28;20502;-79
2021/03/04 03:12:44;;;;;;;26.47;19.83;;;7.00;99.90;;;;;;4966394;28;20454;-79
2021/03/04 03:15:15;;;;;;;22.17;16.50;;;7.00;99.90;;;;;;4965942;28;20398;-80
2021/03/04 03:17:41;;;;;;;33.03;21.53;;;6.80;99.90;;;;;;4964343;29;20446;-79
2021/03/04 03:20:10;;;;;;;32.60;19.67;;;6.80;99.90;;;;;;4963176;29;20406;-79
2021/03/04 03:22:36;;;;;;;31.67;16.67;;;6.90;99.90;;;;;;4965211;28;20817;-79
2021/03/04 03:25:05;;;;;;;31.00;18.80;;;6.90;99.90;;;;;;4965208;28;20411;-80
2021/03/04 03:27:30;;;;;;;30.13;18.73;;;6.80;99.90;;;;;;4965767;28;20597;-79
2021/03/04 03:29:57;;;;;;;26.50;16.57;;;6.80;99.90;;;;;;4963372;28;20407;-79
2021/03/04 03:32:24;;;;;;;27.60;17.00;;;6.90;99.90;;;;;;4965232;28;20687;-79
2021/03/04 03:34:51;;;;;;;34.03;18.93;;;6.90;99.90;;;;;;4946436;29;20939;-79
2021/03/04 03:37:18;;;;;;;32.30;19.67;;;6.80;99.90;;;;;;4964967;28;20458;-79
2021/03/04 03:39:49;;;;;;;28.47;17.93;;;6.80;99.90;;;;;;4963179;28;20410;-77
2021/03/04 03:42:18;;;;;;;35.70;18.70;;;6.80;99.90;;;;;;4963092;29;20380;-79
2021/03/04 03:44:46;;;;;;;27.50;16.17;;;7.00;99.90;;;;;;4964287;28;20420;-80
2021/03/04 03:47:13;;;;;;;34.23;18.37;;;6.90;99.90;;;;;;4963372;28;20416;-79
2021/03/04 03:49:39;;;;;;;27.83;16.77;;;6.90;99.90;;;;;;4965328;29;20402;-79
2021/03/04 03:52:06;;;;;;;27.07;15.40;;;6.80;99.90;;;;;;4965518;28;20442;-80
2021/03/04 03:54:33;;;;;;;27.73;17.70;;;6.80;99.90;;;;;;4965951;28;20164;-79
2021/03/04 03:57:01;;;;;;;31.13;19.40;;;6.70;99.90;;;;;;4966248;28;20793;-79
2021/03/04 03:59:27;;;;;;;31.60;18.80;;;6.70;99.90;;;;;;4967103;28;20403;-80
2021/03/04 04:01:54;;;;;;;24.67;15.27;;;6.70;99.90;;;;;;4965833;28;20896;-79
2021/03/04 04:04:21;;;;;;;36.67;19.90;;;6.60;99.90;;;;;;4966249;28;20399;-79
2021/03/04 04:06:47;;;;;;;27.63;17.40;;;6.70;99.90;;;;;;4966895;28;20392;-79
2021/03/04 04:09:14;;;;;;;28.87;17.07;;;6.60;99.90;;;;;;4965379;28;20410;-79
2021/03/04 04:11:40;;;;;;;31.87;17.30;;;6.60;99.90;;;;;;4965144;28;20554;-79
2021/03/04 04:14:06;;;;;;;32.70;16.27;;;6.60;99.90;;;;;;4965043;28;20435;-80
2021/03/04 04:16:31;;;;;;;35.00;18.60;;;6.60;99.90;;;;;;4965527;28;20178;-79
2021/03/04 04:18:58;;;;;;;33.67;18.00;;;6.60;99.90;;;;;;4964767;28;20438;-79
2021/03/04 04:21:24;;;;;;;28.40;16.97;;;6.60;99.90;;;;;;4965675;28;20171;-79
2021/03/04 04:23:51;;;;;;;32.27;18.43;;;6.60;99.90;;;;;;4964586;28;20406;-80
2021/03/04 04:26:19;;;;;;;28.57;17.53;;;6.70;99.90;;;;;;4963734;29;20486;-79
2021/03/04 04:28:45;;;;;;;31.40;19.10;;;6.60;99.90;;;;;;4965547;28;20399;-79
2021/03/04 04:31:11;;;;;;;22.97;18.10;;;6.60;99.90;;;;;;4965342;28;20526;-79
2021/03/04 04:33:37;;;;;;;28.33;19.10;;;6.60;99.90;;;;;;4965117;28;20508;-79
2021/03/04 04:36:04;;;;;;;23.50;15.97;;;6.60;99.90;;;;;;4965276;28;20504;-80
2021/03/04 04:38:30;;;;;;;27.60;16.10;;;6.60;99.90;;;;;;4964997;28;20262;-80
2021/03/04 04:40:55;;;;;;;25.30;16.63;;;6.50;99.90;;;;;;4966350;28;20398;-79
2021/03/04 04:43:21;;;;;;;27.60;18.40;;;6.50;99.90;;;;;;4966257;28;20175;-80
2021/03/04 04:45:47;;;;;;;31.30;17.90;;;6.50;99.90;;;;;;4963555;28;20187;-80
2021/03/04 04:48:13;;;;;;;38.60;19.27;;;6.50;99.90;;;;;;4960490;28;20186;-79
2021/03/04 04:50:39;;;;;;;25.50;16.90;;;6.50;99.90;;;;;;4967827;28;20374;-80
2021/03/04 04:53:05;;;;;;;25.63;17.20;;;6.50;99.90;;;;;;4984989;28;20414;-79
2021/03/04 04:55:31;;;;;;;37.50;18.77;;;6.60;99.90;;;;;;4984376;28;20394;-80
2021/03/04 04:57:57;;;;;;;22.80;16.07;;;6.60;99.90;;;;;;4983911;28;20501;-79
2021/03/04 05:00:23;;;;;;;24.10;17.13;;;6.60;99.90;;;;;;4965358;28;20171;-80
2021/03/04 05:02:49;;;;;;;27.17;16.40;;;6.60;99.90;;;;;;4964913;28;20454;-78
2021/03/04 05:05:15;;;;;;;25.10;16.57;;;6.60;99.90;;;;;;4981684;28;20178;-80
2021/03/04 05:07:41;;;;;;;30.10;17.50;;;6.60;99.90;;;;;;4984470;28;20394;-80
2021/03/04 05:10:08;;;;;;;28.53;17.00;;;6.60;99.90;;;;;;4982455;28;20433;-80
2021/03/04 05:12:35;;;;;;;29.90;16.57;;;6.50;99.90;;;;;;4984340;28;20559;-79
2021/03/04 05:15:01;;;;;;;23.27;16.23;;;6.50;99.90;;;;;;4983848;28;20906;-79
2021/03/04 05:17:26;;;;;;;21.93;16.80;;;6.50;99.90;;;;;;4983790;28;20534;-80
2021/03/04 05:19:52;;;;;;;30.00;17.07;;;6.50;99.90;;;;;;4983462;28;20397;-80
2021/03/04 05:22:18;;;;;;;27.03;17.77;;;6.50;99.90;;;;;;4983676;28;20174;-80
2021/03/04 05:24:44;;;;;;;28.40;16.30;;;6.50;99.90;;;;;;4983290;28;20162;-79
2021/03/04 05:27:10;;;;;;;24.33;18.27;;;6.40;99.90;;;;;;4984407;28;20458;-80
2021/03/04 05:29:36;;;;;;;28.60;17.67;;;6.40;99.90;;;;;;4983562;28;20198;-80
2021/03/04 05:32:02;;;;;;;24.23;17.37;;;6.40;99.90;;;;;;4984521;28;20703;-80
2021/03/04 05:34:28;;;;;;;31.13;17.10;;;6.40;99.90;;;;;;4983208;28;20159;-80
2021/03/04 05:36:53;;;;;;;19.27;16.90;;;6.40;99.90;;;;;;4982257;28;20497;-80
2021/03/04 05:39:19;;;;;;;28.00;19.33;;;6.40;99.90;;;;;;4983665;28;20182;-80
2021/03/04 05:41:45;;;;;;;31.90;16.90;;;6.50;99.90;;;;;;4983706;28;20518;-79
2021/03/04 05:44:13;;;;;;;33.17;19.60;;;6.50;99.90;;;;;;4965977;28;20423;-79
2021/03/04 05:46:40;;;;;;;36.30;18.80;;;6.70;99.90;;;;;;4964992;28;20410;-80
2021/03/04 05:49:10;;;;;;;26.60;18.43;;;6.70;99.90;;;;;;4965005;28;20411;-80
2021/03/04 05:51:38;;;;;;;30.30;17.13;;;6.80;99.90;;;;;;4965295;28;20447;-80
2021/03/04 05:54:06;;;;;;;28.67;18.20;;;6.70;99.90;;;;;;4964087;28;20439;-80
2021/03/04 05:56:35;;;;;;;33.60;18.70;;;6.70;99.90;;;;;;4962945;29;20884;-79
2021/03/04 05:59:01;;;;;;;36.40;19.17;;;6.60;99.90;;;;;;4964682;28;20431;-80
2021/03/04 06:01:29;;;;;;;25.57;17.83;;;6.60;99.90;;;;;;4964680;28;20395;-79
2021/03/04 06:03:55;;;;;;;35.90;20.83;;;6.70;99.90;;;;;;4964286;28;20396;-80
2021/03/04 06:06:21;;;;;;;33.00;20.43;;;6.80;99.90;;;;;;4964189;28;20486;-79
2021/03/04 06:08:47;;;;;;;27.43;20.40;;;6.70;99.90;;;;;;4965283;28;20439;-80
2021/03/04 06:11:12;;;;;;;29.07;18.67;;;6.80;99.90;;;;;;4967667;28;20194;-79
2021/03/04 06:13:38;;;;;;;34.07;20.20;;;6.80;99.90;;;;;;4969770;28;20163;-79
2021/03/04 06:16:04;;;;;;;41.23;18.13;;;6.80;99.90;;;;;;4968982;28;20164;-79
2021/03/04 06:18:41;;;;;;;32.60;19.00;;;6.70;99.90;;;;;;4969158;28;20187;-80
2021/03/04 06:21:22;;;;;;;29.80;18.53;;;6.60;99.90;;;;;;4968766;28;20430;-80
2021/03/04 06:23:49;;;;;;;29.30;17.33;;;6.60;99.90;;;;;;4969305;28;20395;-80
2021/03/04 06:26:36;;;;;;;26.33;17.00;;;6.50;99.90;;;;;;4969138;28;20865;-80
2021/03/04 06:29:12;;;;;;;23.23;16.33;;;6.20;99.90;;;;;;4969165;28;20391;-80
2021/03/04 06:31:38;;;;;;;23.63;15.80;;;6.40;99.90;;;;;;4968963;29;20438;-79
2021/03/04 06:34:15;;;;;;;25.30;16.90;;;6.30;99.90;;;;;;4969621;28;20402;-79
2021/03/04 06:36:52;;;;;;;28.67;15.77;;;6.20;99.90;;;;;;4968936;28;20454;-79
2021/03/04 06:39:18;;;;;;;31.63;15.97;;;6.10;99.90;;;;;;4970103;28;20394;-80
2021/03/04 06:41:44;;;;;;;24.97;16.20;;;6.10;99.90;;;;;;4969148;28;20450;-79
2021/03/04 06:44:09;;;;;;;31.30;15.80;;;5.80;99.90;;;;;;4969837;28;20617;-80
2021/03/04 06:46:44;;;;;;;25.33;16.27;;;5.90;99.90;;;;;;4969725;28;20168;-79
2021/03/04 06:49:09;;;;;;;28.23;19.27;;;5.90;99.90;;;;;;4968956;28;20197;-80
2021/03/04 06:51:43;;;;;;;32.07;16.00;;;5.90;99.90;;;;;;4969427;28;20450;-79
2021/03/04 06:54:20;;;;;;;29.27;17.77;;;5.80;99.90;;;;;;4969521;28;20191;-79
2021/03/04 06:56:46;;;;;;;28.63;17.33;;;6.00;99.90;;;;;;4969849;28;20395;-79
2021/03/04 06:59:12;;;;;;;28.83;17.13;;;6.10;99.90;;;;;;4970216;28;20404;-80
2021/03/04 07:01:39;;;;;;;20.03;15.87;;;6.10;99.90;;;;;;4969821;28;20181;-80
2021/03/04 07:04:14;;;;;;;25.53;16.57;;;6.30;99.90;;;;;;4970184;28;20171;-79
2021/03/04 07:06:41;;;;;;;24.07;15.00;;;6.20;99.90;;;;;;4969390;28;20774;-79
2021/03/04 07:09:07;;;;;;;23.00;14.70;;;6.30;99.90;;;;;;4969914;28;20530;-79
2021/03/04 07:11:36;;;;;;;29.47;17.13;;;6.40;99.90;;;;;;4969941;28;20450;-79
2021/03/04 07:14:04;;;;;;;24.70;16.97;;;6.30;99.90;;;;;;4969520;28;20745;-80
2021/03/04 07:16:35;;;;;;;29.30;17.87;;;6.40;99.90;;;;;;4970485;28;20426;-80
2021/03/04 07:19:02;;;;;;;28.17;17.63;;;6.50;99.90;;;;;;4968985;28;20403;-80
2021/03/04 07:21:33;;;;;;;26.97;16.53;;;6.50;99.90;;;;;;4967920;28;20403;-80
2021/03/04 07:24:03;;;;;;;28.20;16.90;;;6.50;99.90;;;;;;4962506;28;20438;-79
2021/03/04 07:26:30;;;;;;;41.27;18.00;;;6.60;99.90;;;;;;4969048;28;20751;-80
2021/03/04 07:28:58;;;;;;;22.90;16.07;;;6.70;99.90;;;;;;4971335;28;20439;-79
2021/03/04 07:31:24;;;;;;;23.17;17.00;;;6.60;99.90;;;;;;4961299;28;20474;-80
2021/03/04 07:33:51;;;;;;;22.87;16.47;;;6.70;99.90;;;;;;4973819;28;20483;-80
2021/03/04 07:36:22;;;;;;;31.17;16.10;;;6.80;99.90;;;;;;4971553;28;20435;-80
2021/03/04 07:38:57;;;;;;;27.07;16.43;;;6.70;99.90;;;;;;4965657;28;20920;-79
2021/03/04 07:41:36;;;;;;;30.90;17.03;;;6.90;99.90;;;;;;4954726;28;20780;-79
2021/03/04 07:44:02;;;;;;;25.00;17.93;;;7.10;99.90;;;;;;4956958;28;20431;-79
2021/03/04 07:46:44;;;;;;;23.17;16.27;;;7.10;99.90;;;;;;4960838;28;21170;-79
2021/03/04 07:49:13;;;;;;;25.40;17.53;;;7.30;99.90;;;;;;4956706;28;20473;-79
2021/03/04 07:51:42;;;;;;;31.33;19.37;;;7.20;99.90;;;;;;4952467;28;20752;-79
2021/03/04 07:54:09;;;;;;;30.67;18.63;;;7.50;99.90;;;;;;4959574;28;20202;-80
2021/03/04 07:56:34;;;;;;;24.30;16.23;;;7.40;99.90;;;;;;4958797;28;20434;-80
2021/03/04 07:59:11;;;;;;;19.83;13.70;;;7.40;99.90;;;;;;4960386;28;20442;-79
2021/03/04 08:01:38;;;;;;;29.90;17.73;;;7.40;99.90;;;;;;4960570;28;20314;-80
2021/03/04 08:04:04;;;;;;;31.57;17.73;;;7.70;99.90;;;;;;4960785;28;20442;-80
2021/03/04 08:06:30;;;;;;;24.33;14.73;;;7.90;99.90;;;;;;4934190;28;20447;-80
2021/03/04 08:08:56;;;;;;;31.20;18.10;;;7.90;99.90;;;;;;4952046;28;20503;-79
2021/03/04 08:11:24;;;;;;;29.50;18.17;;;8.00;99.90;;;;;;4956419;28;20250;-79
2021/03/04 08:13:50;;;;;;;24.33;16.00;;;7.70;99.90;;;;;;4960530;28;20286;-80
2021/03/04 08:16:18;;;;;;;32.87;17.97;;;7.70;99.90;;;;;;4962865;28;20434;-80
2021/03/04 08:18:51;;;;;;;30.60;17.63;;;7.90;99.90;;;;;;4975396;28;20534;-79
2021/03/04 08:21:17;;;;;;;38.23;17.97;;;8.10;99.90;;;;;;4965873;28;20446;-79
2021/03/04 08:23:45;;;;;;;26.20;16.10;;;8.10;99.90;;;;;;4966137;28;21075;-80
2021/03/04 08:26:29;;;;;;;26.80;15.03;;;8.10;99.90;;;;;;4952342;28;20591;-79
2021/03/04 08:29:05;;;;;;;22.67;15.90;;;8.20;99.90;;;;;;4958668;29;21050;-79
2021/03/04 08:31:32;;;;;;;29.13;16.23;;;8.40;99.90;;;;;;4958398;28;20489;-79
2021/03/04 08:33:58;;;;;;;25.83;16.90;;;8.70;99.90;;;;;;4957188;28;20431;-78
2021/03/04 08:36:24;;;;;;;36.37;15.80;;;9.00;99.90;;;;;;4944401;29;20544;-80
2021/03/04 08:38:50;;;;;;;26.67;16.90;;;9.00;99.90;;;;;;4963771;28;20449;-80
2021/03/04 08:41:23;;;;;;;35.53;17.20;;;9.50;99.90;;;;;;4962110;29;20444;-79
2021/03/04 08:43:51;;;;;;;29.20;18.27;;;9.50;99.90;;;;;;4955485;28;20439;-79
2021/03/04 08:46:18;;;;;;;22.03;14.40;;;9.70;99.90;;;;;;4959577;28;20445;-79
2021/03/04 08:48:46;;;;;;;26.53;13.70;;;10.40;99.90;;;;;;4964174;28;20445;-80
2021/03/04 08:51:14;;;;;;;25.10;13.93;;;10.20;99.90;;;;;;4956460;28;20467;-80
2021/03/04 08:53:40;;;;;;;26.33;14.90;;;9.90;99.90;;;;;;4962696;29;20443;-79
2021/03/04 08:56:07;;;;;;;32.30;15.07;;;10.00;99.90;;;;;;4963962;28;20441;-79
2021/03/04 08:58:40;;;;;;;23.47;15.37;;;10.00;99.90;;;;;;4957411;28;20264;-80
2021/03/04 09:01:06;;;;;;;26.53;15.63;;;9.90;99.90;;;;;;4959479;28;20444;-79
2021/03/04 09:03:35;;;;;;;24.20;15.10;;;9.70;99.90;;;;;;4959069;28;20964;-80
2021/03/04 09:06:04;;;;;;;22.20;14.77;;;9.90;99.90;;;;;;4958060;28;20428;-80
2021/03/04 09:08:35;;;;;;;20.97;13.53;;;9.90;99.90;;;;;;4961592;28;20450;-80
2021/03/04 09:11:02;;;;;;;21.20;14.93;;;10.00;99.90;;;;;;4960287;29;20521;-80
2021/03/04 09:13:28;;;;;;;22.33;15.00;;;10.00;99.90;;;;;;4962510;29;20490;-80
2021/03/04 09:15:58;;;;;;;21.37;14.57;;;10.30;99.90;;;;;;4966569;28;20446;-79
2021/03/04 09:18:25;;;;;;;21.50;15.73;;;10.10;99.90;;;;;;4962596;29;20261;-80
2021/03/04 09:20:53;;;;;;;22.67;16.80;;;10.40;99.90;;;;;;4963734;28;20434;-80
2021/03/04 09:23:20;;;;;;;21.97;14.17;;;10.50;99.90;;;;;;4961360;29;20438;-80
2021/03/04 09:25:46;;;;;;;17.97;13.70;;;10.40;99.90;;;;;;4956432;28;21013;-80
2021/03/04 09:28:15;;;;;;;26.00;15.33;;;10.70;99.90;;;;;;4963671;28;20451;-80
2021/03/04 09:30:41;;;;;;;22.30;15.67;;;11.00;99.90;;;;;;4963395;28;20470;-80
2021/03/04 09:33:23;;;;;;;24.10;15.00;;;10.50;99.90;;;;;;4962324;28;20438;-79
2021/03/04 09:35:55;;;;;;;18.40;12.30;;;10.40;99.90;;;;;;4958165;28;20558;-80
2021/03/04 09:38:21;;;;;;;29.60;15.57;;;10.80;99.90;;;;;;4967030;28;20600;-79
2021/03/04 09:40:47;;;;;;;28.60;17.10;;;10.70;99.90;;;;;;4964494;28;20478;-79
2021/03/04 09:43:15;;;;;;;30.43;16.33;;;10.90;99.90;;;;;;4971824;28;20515;-79
2021/03/04 09:45:50;;;;;;;22.10;14.43;;;11.70;99.90;;;;;;4977251;28;20213;-79
2021/03/04 09:48:17;;;;;;;25.60;14.63;;;12.50;99.90;;;;;;4971807;28;20449;-78
2021/03/04 09:50:58;;;;;;;24.93;14.90;;;12.80;99.90;;;;;;4963401;28;20828;-78
2021/03/04 09:53:23;;;;;;;22.17;14.87;;;14.40;99.90;;;;;;4966617;28;20431;-79
2021/03/04 09:55:49;;;;;;;20.83;14.50;;;15.90;99.90;;;;;;4963933;28;20556;-78
2021/03/04 09:58:21;;;;;;;28.23;15.23;;;16.90;99.90;;;;;;4970200;28;20203;-79
2021/03/04 10:00:57;;;;;;;22.90;14.17;;;17.80;99.90;;;;;;4957895;28;20203;-79
2021/03/04 10:03:35;;;;;;;20.23;14.07;;;17.70;99.90;;;;;;4965729;29;20442;-79
2021/03/04 10:06:01;;;;;;;21.97;13.70;;;16.70;99.90;;;;;;4967277;28;20842;-79
2021/03/04 10:08:43;;;;;;;23.53;14.17;;;15.40;99.90;;;;;;4963803;29;20447;-79
2021/03/04 10:11:21;;;;;;;23.53;14.43;;;13.90;99.90;;;;;;4958252;28;20623;-79
2021/03/04 10:13:47;;;;;;;17.87;13.37;;;14.20;99.90;;;;;;4958523;29;20446;-78
2021/03/04 10:16:13;;;;;;;16.87;14.50;;;14.30;99.90;;;;;;4968884;29;20474;-78
2021/03/04 10:18:45;;;;;;;16.20;13.10;;;13.80;99.90;;;;;;4963571;28;20637;-78
2021/03/04 10:21:12;;;;;;;24.60;15.60;;;13.80;99.90;;;;;;4968308;28;20445;-80
2021/03/04 10:23:38;;;;;;;21.30;13.67;;;14.30;99.90;;;;;;4962538;28;20449;-77
2021/03/04 10:26:04;;;;;;;23.03;14.40;;;14.90;99.90;;;;;;4966646;28;20442;-79
2021/03/04 10:28:30;;;;;;;15.83;12.07;;;14.40;99.90;;;;;;4966973;28;20207;-79
2021/03/04 10:30:56;;;;;;;19.87;13.43;;;14.30;99.90;;;;;;4972074;28;20943;-80
2021/03/04 10:33:22;;;;;;;18.30;12.50;;;13.50;99.90;;;;;;4965140;28;20187;-78
2021/03/04 10:35:51;;;;;;;20.20;13.30;;;13.50;99.90;;;;;;4947538;29;20577;-80
2021/03/04 10:38:17;;;;;;;21.43;15.73;;;14.00;99.90;;;;;;4942425;29;20498;-81
2021/03/04 10:40:43;;;;;;;21.90;12.73;;;14.30;99.90;;;;;;4960242;28;20454;-80
2021/03/04 10:43:09;;;;;;;24.73;13.43;;;14.60;99.90;;;;;;4960912;28;20518;-79
2021/03/04 10:45:35;;;;;;;19.60;13.37;;;15.20;99.90;;;;;;4967050;29;20199;-80
2021/03/04 10:48:00;;;;;;;16.13;12.50;;;15.30;99.90;;;;;;4952776;28;20439;-80
2021/03/04 10:50:27;;;;;;;19.43;14.17;;;14.00;99.90;;;;;;4962829;28;20477;-81
2021/03/04 10:52:53;;;;;;;23.13;13.73;;;13.80;99.90;;;;;;4967590;28;20203;-80
2021/03/04 10:55:19;;;;;;;15.70;12.33;;;14.30;99.90;;;;;;4961250;28;20518;-81
2021/03/04 10:57:45;;;;;;;24.90;14.57;;;14.80;99.90;;;;;;4964787;29;20451;-79
2021/03/04 11:00:13;;;;;;;22.83;14.90;;;14.20;99.90;;;;;;4963896;28;20539;-81
2021/03/04 11:02:39;;;;;;;22.57;13.70;;;14.50;99.90;;;;;;4962683;29;20488;-82
2021/03/04 11:05:06;;;;;;;17.90;13.30;;;14.80;99.90;;;;;;4955819;28;20447;-81
2021/03/04 11:07:33;;;;;;;24.57;13.50;;;15.20;99.90;;;;;;4953374;28;20541;-81
2021/03/04 11:09:59;;;;;;;29.70;13.27;;;15.30;99.90;;;;;;4957037;28;20497;-81
2021/03/04 11:12:26;;;;;;;18.27;12.37;;;15.40;99.90;;;;;;4963553;28;20560;-81
2021/03/04 11:14:55;;;;;;;19.27;11.93;;;15.30;99.90;;;;;;4953467;28;20191;-80
2021/03/04 11:17:21;;;;;;;17.90;13.57;;;15.50;99.90;;;;;;4958480;28;20442;-80
2021/03/04 11:19:46;;;;;;;21.87;13.93;;;15.70;99.90;;;;;;4956163;29;20502;-81
2021/03/04 11:22:12;;;;;;;19.60;13.30;;;15.70;99.90;;;;;;4957504;28;20200;-79
2021/03/04 11:24:38;;;;;;;17.10;13.90;;;15.60;99.90;;;;;;4946173;28;20191;-81
2021/03/04 11:27:07;;;;;;;21.50;15.30;;;15.90;99.90;;;;;;4954647;28;20278;-81
2021/03/04 11:29:33;;;;;;;23.50;15.10;;;16.40;99.90;;;;;;4952546;28;20187;-81
2021/03/04 11:31:59;;;;;;;18.97;13.57;;;16.90;99.90;;;;;;4954342;28;20581;-82
2021/03/04 11:34:24;;;;;;;19.13;14.13;;;15.90;99.90;;;;;;4958001;28;20289;-82
2021/03/04 11:36:53;;;;;;;18.73;12.97;;;16.20;99.90;;;;;;4957622;28;20242;-82
2021/03/04 11:39:19;;;;;;;16.80;14.47;;;15.60;99.90;;;;;;4955748;28;20439;-85
2021/03/04 11:41:44;;;;;;;25.20;14.57;;;15.50;99.90;;;;;;4955478;29;20254;-83
2021/03/04 11:44:12;;;;;;;18.83;14.03;;;16.00;99.90;;;;;;4955181;28;20191;-83
2021/03/04 11:46:38;;;;;;;19.23;13.37;;;16.60;99.90;;;;;;4956847;29;20190;-85
2021/03/04 11:49:04;;;;;;;21.00;12.43;;;17.40;99.90;;;;;;4956740;28;20439;-83
2021/03/04 11:51:30;;;;;;;24.50;13.80;;;17.50;99.90;;;;;;4949007;28;20227;-83
2021/03/04 11:53:55;;;;;;;19.40;14.87;;;16.80;99.90;;;;;;4962167;28;20620;-81
2021/03/04 11:56:22;;;;;;;21.93;14.73;;;16.80;99.90;;;;;;4965896;28;20184;-83
2021/03/04 11:58:48;;;;;;;16.60;13.03;;;16.70;99.90;;;;;;4963650;28;20192;-82
2021/03/04 12:01:14;;;;;;;19.13;13.30;;;16.30;99.90;;;;;;4958671;28;20828;-82
2021/03/04 12:03:39;;;;;;;17.23;14.20;;;17.00;99.90;;;;;;4955347;28;20277;-83
2021/03/04 12:06:05;;;;;;;23.13;15.63;;;17.80;99.90;;;;;;4953249;28;20192;-83
2021/03/04 12:08:31;;;;;;;22.83;13.87;;;17.60;99.70;;;;;;4952868;28;20302;-83
2021/03/04 12:10:57;;;;;;;26.10;12.77;;;17.70;99.50;;;;;;4948560;28;20901;-83
2021/03/04 12:13:24;;;;;;;19.07;12.17;;;17.60;99.70;;;;;;4952104;28;20203;-83
2021/03/04 12:15:49;;;;;;;21.10;14.67;;;17.40;99.90;;;;;;4947511;28;20513;-83
2021/03/04 12:18:15;;;;;;;19.00;12.50;;;17.00;99.90;;;;;;4949483;28;20519;-83
2021/03/04 12:20:41;;;;;;;23.07;14.70;;;16.70;99.90;;;;;;4942060;28;20206;-82
2021/03/04 12:23:07;;;;;;;18.57;12.27;;;15.60;99.90;;;;;;4958623;28;20286;-83
2021/03/04 12:25:34;;;;;;;19.87;13.60;;;14.90;99.90;;;;;;4955110;28;20249;-83
2021/03/04 12:27:59;;;;;;;20.50;15.07;;;15.50;99.90;;;;;;4946306;28;20210;-82
2021/03/04 12:30:25;;;;;;;17.17;12.90;;;16.10;99.90;;;;;;4954066;28;20558;-82
2021/03/04 12:32:51;;;;;;;18.80;12.63;;;16.90;99.90;;;;;;4952454;29;20510;-83
2021/03/04 12:35:20;;;;;;;18.10;12.70;;;16.90;99.90;;;;;;4947553;28;20458;-82
2021/03/04 12:37:47;;;;;;;16.33;12.53;;;17.10;99.90;;;;;;4947524;28;20250;-83